Portada
METAR-TAF:

METAR-TAF

Aeroports :

Wemindji, Quebec, Canadà

latitud: 53-00-39N, longitud: 078-49-49W, altitud: 15 m

Observació

L'informe es va fer fa 12 hores i 55 minuts, a les 20:00 UTC
Vent 7 kt del Nord-Oest, variant entre Oest i Nord
Temperatura 5°C
Humitat 75%
Pressió 1012 hPa
Visibilitat: 24.1 km
Escasses núvols a una alçada de 1500 ft
Cel ennuvolat a una alçada de 11000 ft
Cel ennuvolat a una alçada de 14000 ft

METAR: CYNC 052000Z 31007KT 280V360 15SM FEW015 BKN110 BKN140 05/01 A2989 RMK SF2AC3AS2 LAST STFD OBS/NEXT 071600UTC SLP125

Hora: 04:55 (08:55 UTC)


TAF: manca

Observacions i pronòstics meteorològics de més de 4000 aeroports (METAR i TAF).

Les estacions disponibles són els punts grocs i vermells al mapa.

Posi el ratolí al punt desitjat per veure el nom de l'estació.

Feu clic per veure les observacions i els pronòstics meteorològics.

Per canviar el mapa: feu clic els botons verds amb una creu de color negre per apropar; al botó verd amb un guió per allunyar la imatge; o en les fletxes verdes per a mapes adjacents.


METAR-TAF: